Time;durP1;ratioP1;P1;durP2;ratioP2;P2;SDS_P1;SDS_P2;PMS_P1;PMS_P2;Temp;Humidity;BMP_temperature;BMP_pressure;BME280_temperature;BME280_humidity;BME280_pressure;Samples;Min_cycle;Max_cycle;Signal;HPM_P1;HPM_P2
2022/12/05 00:00:33;;;;;;;82.20;27.10;;;;;;;-1.15;100.00;97093.94;105849;1301;22465;-89
2022/12/05 00:03:11;;;;;;;49.10;24.90;;;;;;;-1.13;100.00;97088.02;105778;1290;22529;-91
2022/12/05 00:05:41;;;;;;;52.20;25.20;;;;;;;-1.15;100.00;97088.56;105724;1293;93320;-90
2022/12/05 00:08:10;;;;;;;27.80;17.50;;;;;;;-1.15;100.00;97086.00;104966;1286;22459;-90
2022/12/05 00:10:39;;;;;;;41.40;24.90;;;;;;;-1.13;100.00;97083.13;105816;1301;24260;-89
2022/12/05 00:13:07;;;;;;;46.90;26.10;;;;;;;-1.13;100.00;97080.93;105765;1301;24314;-90
2022/12/05 00:15:37;;;;;;;40.50;24.20;;;;;;;-1.15;100.00;97076.84;104462;1279;1799061;-90
2022/12/05 00:18:06;;;;;;;42.70;26.10;;;;;;;-1.12;100.00;97074.90;105729;1296;22466;-89
2022/12/05 00:20:35;;;;;;;42.00;25.00;;;;;;;-1.08;100.00;97070.69;105745;1301;22511;-90
2022/12/05 00:23:04;;;;;;;42.10;25.70;;;;;;;-1.05;100.00;97067.02;105702;1301;22834;-90
2022/12/05 00:25:35;;;;;;;37.20;23.90;;;;;;;-1.02;100.00;97068.02;105723;1301;23939;-89
2022/12/05 00:28:07;;;;;;;39.60;25.90;;;;;;;-1.00;100.00;97063.27;105769;1277;22554;-90
2022/12/05 00:30:38;;;;;;;40.40;25.60;;;;;;;-1.00;100.00;97062.66;105784;1285;25339;-91
2022/12/05 00:33:07;;;;;;;40.50;26.80;;;;;;;-0.99;100.00;97060.73;105791;1292;25262;-91
2022/12/05 00:35:36;;;;;;;35.90;24.30;;;;;;;-1.00;100.00;97066.42;105684;1300;95166;-90
2022/12/05 00:38:04;;;;;;;36.30;24.50;;;;;;;-0.99;100.00;97065.79;105770;1285;25325;-90
2022/12/05 00:40:35;;;;;;;41.20;26.70;;;;;;;-0.99;100.00;97063.44;105797;1287;22484;-90
2022/12/05 00:43:06;;;;;;;38.80;25.50;;;;;;;-0.98;100.00;97061.45;105768;1295;22529;-91
2022/12/05 00:45:35;;;;;;;36.20;24.20;;;;;;;-1.00;100.00;97056.85;105706;1301;23220;-91
2022/12/05 00:48:04;;;;;;;38.40;26.10;;;;;;;-1.06;100.00;97052.71;105768;1300;22470;-90
2022/12/05 00:50:32;;;;;;;41.10;25.80;;;;;;;-1.11;100.00;97047.14;105757;1300;22546;-90
2022/12/05 00:53:01;;;;;;;39.10;25.50;;;;;;;-1.09;100.00;97047.94;105794;1301;22481;-90
2022/12/05 00:55:31;;;;;;;38.80;25.80;;;;;;;-1.07;100.00;97049.91;105778;1295;24554;-90
2022/12/05 00:58:01;;;;;;;40.60;26.50;;;;;;;-1.06;100.00;97049.59;105771;1292;22462;-90
2022/12/05 01:00:29;;;;;;;38.70;25.60;;;;;;;-1.04;100.00;97042.95;105788;1301;22459;-90
2022/12/05 01:02:58;;;;;;;39.70;26.40;;;;;;;-1.02;100.00;97038.20;105815;1278;22503;-90
2022/12/05 01:05:27;;;;;;;40.40;27.00;;;;;;;-1.01;100.00;97039.67;105733;1301;23438;-90
2022/12/05 01:07:55;;;;;;;36.50;25.30;;;;;;;-1.02;100.00;97045.64;105728;1299;22472;-90
2022/12/05 01:10:24;;;;;;;37.80;25.60;;;;;;;-1.09;100.00;97045.83;105764;1282;22483;-90
2022/12/05 01:12:55;;;;;;;40.50;26.50;;;;;;;-1.14;100.00;97042.74;105736;1301;23047;-90
2022/12/05 01:15:26;;;;;;;36.80;24.30;;;;;;;-1.13;100.00;97040.90;105755;1288;25339;-90
2022/12/05 01:17:55;;;;;;;36.30;24.30;;;;;;;-1.11;100.00;97035.08;105787;1301;25259;-89
2022/12/05 01:20:26;;;;;;;36.40;24.60;;;;;;;-1.09;100.00;97030.77;105712;1301;22464;-89
2022/12/05 01:22:57;;;;;;;36.60;25.10;;;;;;;-1.06;100.00;97030.19;105795;1292;22583;-89
2022/12/05 01:25:25;;;;;;;37.10;25.20;;;;;;;-1.06;100.00;97030.66;105742;1301;23127;-90
2022/12/05 01:27:54;;;;;;;34.20;23.80;;;;;;;-1.11;100.00;97028.80;105792;1282;25426;-90
2022/12/05 01:30:26;;;;;;;36.30;25.90;;;;;;;-1.13;100.00;97023.69;105802;1301;22473;-91
2022/12/05 01:32:55;;;;;;;38.80;26.00;;;;;;;-1.14;100.00;97022.92;105790;1301;22464;-90
2022/12/05 01:35:27;;;;;;;36.90;25.90;;;;;;;-1.13;100.00;97024.61;105793;1284;21718;-88
2022/12/05 01:37:56;;;;;;;37.10;25.00;;;;;;;-1.15;100.00;97023.09;105786;1287;22509;-89
2022/12/05 01:40:25;;;;;;;39.80;26.10;;;;;;;-1.22;100.00;97018.55;105819;1301;22589;-90
2022/12/05 01:42:56;;;;;;;38.70;25.80;;;;;;;-1.26;100.00;97017.17;105770;1285;22505;-89
2022/12/05 01:45:33;;;;;;;41.30;26.10;;;;;;;-1.28;100.00;97015.11;105803;1282;22515;-89
2022/12/05 01:48:10;;;;;;;42.60;27.50;;;;;;;-1.38;100.00;97006.88;105769;1292;22460;-90
2022/12/05 01:50:39;;;;;;;37.60;26.50;;;;;;;-1.44;100.00;97008.03;105772;1286;25349;-90
2022/12/05 01:53:08;;;;;;;39.80;26.30;;;;;;;-1.47;100.00;97005.30;105815;1298;22522;-89
2022/12/05 01:55:37;;;;;;;41.50;26.30;;;;;;;-1.48;100.00;97006.94;105764;1301;22482;-89
2022/12/05 01:58:09;;;;;;;46.80;29.80;;;;;;;-1.49;100.00;97002.85;105785;1295;21721;-89
2022/12/05 02:00:39;;;;;;;41.70;27.10;;;;;;;-1.51;100.00;97002.53;105858;1301;25320;-89
2022/12/05 02:03:12;;;;;;;43.00;28.30;;;;;;;-1.50;100.00;97002.21;105795;1301;22465;-90
2022/12/05 02:05:41;;;;;;;43.80;28.50;;;;;;;-1.53;100.00;96997.13;105776;1301;22612;-89
2022/12/05 02:08:13;;;;;;;43.10;27.20;;;;;;;-1.52;100.00;96994.21;105583;1293;22464;-89
2022/12/05 02:10:44;;;;;;;40.10;27.40;;;;;;;-1.52;100.00;96997.93;105556;1302;24519;-89
2022/12/05 02:13:27;;;;;;;38.90;26.30;;;;;;;-1.53;100.00;96994.56;105585;1295;22465;-89
2022/12/05 02:16:05;;;;;;;36.70;24.30;;;;;;;-1.54;100.00;96993.28;105525;1284;24268;-89
2022/12/05 02:18:48;;;;;;;38.20;25.70;;;;;;;-1.55;100.00;96997.38;105625;1295;22504;-89
2022/12/05 02:21:43;;;;;;;37.90;25.10;;;;;;;-1.55;100.00;96996.18;105538;1294;22465;-90
2022/12/05 02:24:40;;;;;;;40.00;26.90;;;;;;;-1.54;100.00;96999.75;105517;1301;25265;-90
2022/12/05 02:27:26;;;;;;;39.80;25.70;;;;;;;-1.54;100.00;97007.48;105476;1295;22465;-90
2022/12/05 02:30:06;;;;;;;70.90;28.60;;;;;;;-1.57;100.00;97018.45;105636;1294;23330;-90
2022/12/05 02:32:56;;;;;;;50.80;28.10;;;;;;;-1.61;100.00;97019.17;105660;1300;22482;-89
2022/12/05 02:35:46;;;;;;;49.40;27.70;;;;;;;-1.61;100.00;97012.86;105571;1301;24756;-90
2022/12/05 02:38:26;;;;;;;93.50;30.20;;;;;;;-1.58;100.00;97012.20;105822;1293;22526;-90
2022/12/05 02:41:04;;;;;;;91.40;29.80;;;;;;;-1.60;100.00;97012.55;105806;1301;22473;-89
2022/12/05 02:43:40;;;;;;;51.10;27.40;;;;;;;-1.65;100.00;97010.69;105783;1296;22564;-89
2022/12/05 02:46:13;;;;;;;64.20;30.70;;;;;;;-1.68;100.00;97015.16;105722;1285;24611;-90
2022/12/05 02:48:45;;;;;;;53.80;29.40;;;;;;;-1.65;100.00;97015.17;105847;1300;22501;-90
2022/12/05 02:51:19;;;;;;;54.00;29.60;;;;;;;-1.64;100.00;97012.05;105747;1301;25220;-90
2022/12/05 02:53:49;;;;;;;59.00;28.60;;;;;;;-1.63;100.00;97014.18;105800;1294;22458;-89
2022/12/05 02:56:19;;;;;;;60.40;30.20;;;;;;;-1.71;100.00;97009.72;105732;1296;22501;-90
2022/12/05 02:58:52;;;;;;;47.80;24.60;;;;;;;-1.73;100.00;97006.83;105718;1304;22510;-90
2022/12/05 03:01:23;;;;;;;64.20;30.90;;;;;;;-1.75;100.00;97005.94;105773;1301;22523;-90
2022/12/05 03:03:52;;;;;;;54.10;28.80;;;;;;;-1.71;100.00;97007.20;105766;1292;23329;-90
2022/12/05 03:06:25;;;;;;;55.60;28.90;;;;;;;-1.66;100.00;97004.33;105764;1288;22434;-90
2022/12/05 03:09:00;;;;;;;53.50;28.20;;;;;;;-1.61;100.00;97003.90;105808;1301;22477;-90
2022/12/05 03:11:32;;;;;;;52.50;30.40;;;;;;;-1.58;100.00;96999.67;105751;1295;22522;-90
2022/12/05 03:14:06;;;;;;;50.30;29.80;;;;;;;-1.57;100.00;96997.48;105810;1283;23295;-90
2022/12/05 03:16:41;;;;;;;56.70;29.50;;;;;;;-1.53;100.00;97000.67;105723;1280;23055;-89
2022/12/05 03:19:15;;;;;;;58.80;30.90;;;;;;;-1.51;100.00;97004.13;105770;1300;22501;-90
2022/12/05 03:21:50;;;;;;;53.80;30.00;;;;;;;-1.51;100.00;97000.65;105786;1301;22496;-90
2022/12/05 03:24:19;;;;;;;64.10;31.30;;;;;;;-1.58;100.00;96997.05;105760;1286;25865;-90
2022/12/05 03:26:55;;;;;;;56.40;31.60;;;;;;;-1.67;100.00;96997.33;105570;1301;24316;-90
2022/12/05 03:29:30;;;;;;;50.40;25.60;;;;;;;-1.65;100.00;96994.46;105640;1303;25463;-90
2022/12/05 03:32:07;;;;;;;67.30;29.20;;;;;;;-1.70;100.00;96993.30;105736;1299;25455;-90
2022/12/05 03:34:49;;;;;;;49.80;27.60;;;;;;;-1.80;100.00;96995.52;105647;1294;22599;-90
2022/12/05 03:37:27;;;;;;;49.90;27.40;;;;;;;-1.79;100.00;96990.70;105748;1299;29046;-90
2022/12/05 03:40:06;;;;;;;47.70;29.10;;;;;;;-1.77;100.00;96983.22;105609;1303;22478;-91
2022/12/05 03:42:39;;;;;;;49.70;29.90;;;;;;;-1.74;100.00;96995.55;105593;1286;22488;-90
2022/12/05 03:45:16;;;;;;;55.00;28.90;;;;;;;-1.71;100.00;96998.55;105614;1296;22525;-87
2022/12/05 03:47:50;;;;;;;60.60;26.60;;;;;;;-1.70;100.00;97003.98;105668;1304;22453;-90
2022/12/05 03:50:24;;;;;;;47.60;28.30;;;;;;;-1.71;100.00;97005.35;105771;1301;25366;-91
2022/12/05 03:52:58;;;;;;;78.80;29.00;;;;;;;-1.68;100.00;97009.66;105810;1289;24329;-90
2022/12/05 03:55:31;;;;;;;42.50;26.70;;;;;;;-1.64;100.00;97008.29;105760;1282;23785;-90
2022/12/05 03:58:04;;;;;;;43.10;27.60;;;;;;;-1.62;100.00;97002.95;105772;1306;23658;-90
2022/12/05 04:00:37;;;;;;;40.10;25.20;;;;;;;-1.59;100.00;97001.95;105730;1301;22528;-90
2022/12/05 04:03:10;;;;;;;44.10;25.10;;;;;;;-1.60;100.00;97000.15;105806;1301;22484;-91
2022/12/05 04:05:44;;;;;;;43.70;24.40;;;;;;;-1.60;100.00;97000.98;104356;1304;1826504;-91
2022/12/05 04:08:21;;;;;;;53.80;29.70;;;;;;;-1.62;100.00;97008.58;105819;1302;26468;-91
2022/12/05 04:10:53;;;;;;;76.30;41.40;;;;;;;-1.66;100.00;97011.13;105899;1292;22891;-90
2022/12/05 04:13:26;;;;;;;49.80;28.10;;;;;;;-1.64;100.00;97012.81;105873;1302;22504;-91
2022/12/05 04:18:53;;;;;;;48.10;29.90;;;;;;;-1.61;100.00;97010.06;105759;1307;22456;-90
2022/12/05 04:21:38;;;;;;;47.20;30.00;;;;;;;-1.61;100.00;97009.23;105763;1304;22461;-92
2022/12/05 04:27:10;;;;;;;45.20;28.70;;;;;;;-1.49;100.00;97018.30;105805;1296;25869;-92
2022/12/05 04:29:48;;;;;;;44.30;28.80;;;;;;;-1.52;100.00;97021.13;105847;1285;22501;-91
2022/12/05 04:32:19;;;;;;;45.40;29.10;;;;;;;-1.50;100.00;97023.80;105900;1307;22532;-91
2022/12/05 04:34:55;;;;;;;44.90;29.90;;;;;;;-1.45;100.00;97026.83;105895;1292;22463;-91
2022/12/05 04:37:30;;;;;;;48.30;29.50;;;;;;;-1.39;100.00;97029.39;105790;1292;25588;-91
2022/12/05 04:40:03;;;;;;;49.40;31.10;;;;;;;-1.35;100.00;97030.89;105842;1305;22475;-91
2022/12/05 04:42:36;;;;;;;43.10;27.70;;;;;;;-1.32;100.00;97028.95;105822;1299;22515;-91
2022/12/05 04:45:09;;;;;;;45.80;29.50;;;;;;;-1.28;100.00;97022.64;105819;1301;22451;-92
2022/12/05 04:47:43;;;;;;;44.40;28.30;;;;;;;-1.27;100.00;97028.66;105833;1307;22526;-91
2022/12/05 04:50:14;;;;;;;43.20;29.30;;;;;;;-1.27;100.00;97021.73;105861;1304;22495;-92
2022/12/05 04:52:47;;;;;;;41.30;27.10;;;;;;;-1.27;100.00;97018.06;105861;1303;22437;-90
2022/12/05 04:55:24;;;;;;;47.10;28.80;;;;;;;-1.26;100.00;97019.38;105833;1289;24932;-89
2022/12/05 04:58:02;;;;;;;49.90;30.90;;;;;;;-1.28;100.00;97020.31;105804;1301;24880;-91
2022/12/05 05:00:37;;;;;;;46.90;28.70;;;;;;;-1.27;100.00;97017.57;105893;1301;22575;-91
2022/12/05 05:03:11;;;;;;;40.60;25.80;;;;;;;-1.29;100.00;97018.03;105809;1301;22558;-92
2022/12/05 05:05:47;;;;;;;43.60;28.40;;;;;;;-1.35;100.00;97018.77;105723;1301;95780;-91
2022/12/05 05:08:21;;;;;;;43.80;28.30;;;;;;;-1.40;100.00;97012.70;105930;1301;25298;-92
2022/12/05 05:11:00;;;;;;;39.20;26.10;;;;;;;-1.42;100.00;97011.36;105888;1286;22466;-92
2022/12/05 05:13:29;;;;;;;41.00;25.50;;;;;;;-1.43;100.00;97012.11;105859;1301;22486;-92
2022/12/05 05:15:58;;;;;;;42.60;26.50;;;;;;;-1.48;100.00;97006.77;105672;1288;151267;-92
2022/12/05 05:18:29;;;;;;;39.40;25.20;;;;;;;-1.54;100.00;97004.70;105843;1301;22512;-91
2022/12/05 05:20:58;;;;;;;39.00;24.40;;;;;;;-1.55;100.00;97006.74;105858;1301;22461;-92
2022/12/05 05:23:27;;;;;;;37.80;24.90;;;;;;;-1.54;100.00;97001.32;105898;1294;22466;-92
2022/12/05 05:25:57;;;;;;;38.30;25.60;;;;;;;-1.56;100.00;97001.32;105709;1301;88264;-91
2022/12/05 05:28:25;;;;;;;40.20;25.40;;;;;;;-1.56;100.00;96996.48;105928;1295;22421;-91
2022/12/05 05:31:00;;;;;;;37.70;24.60;;;;;;;-1.57;100.00;96998.56;105870;1300;25301;-92
2022/12/05 05:33:29;;;;;;;39.90;25.20;;;;;;;-1.57;100.00;96997.35;105847;1301;22462;-91
2022/12/05 05:36:03;;;;;;;44.20;25.50;;;;;;;-1.58;100.00;97000.84;105767;1292;89243;-91
2022/12/05 05:38:34;;;;;;;39.70;26.20;;;;;;;-1.58;100.00;96997.04;105865;1301;22455;-90
2022/12/05 05:41:03;;;;;;;38.50;25.10;;;;;;;-1.60;100.00;96995.59;105814;1301;22439;-91
2022/12/05 05:43:32;;;;;;;37.80;23.60;;;;;;;-1.62;100.00;96995.86;105837;1301;22505;-91
2022/12/05 05:46:04;;;;;;;39.60;26.40;;;;;;;-1.60;100.00;96989.39;103936;1301;2549807;-90
2022/12/05 05:48:35;;;;;;;39.80;24.80;;;;;;;-1.59;100.00;96982.80;105797;1300;22558;-91
2022/12/05 05:51:06;;;;;;;37.90;25.20;;;;;;;-1.57;100.00;96979.84;105850;1296;22452;-90
2022/12/05 05:53:35;;;;;;;34.80;22.90;;;;;;;-1.53;100.00;96978.91;105876;1301;22459;-90
2022/12/05 05:56:06;;;;;;;30.70;20.80;;;;;;;-1.40;100.00;96977.61;105721;1294;86376;-91
2022/12/05 05:58:35;;;;;;;35.60;22.30;;;;;;;-1.25;100.00;96979.56;105824;1293;22493;-91
2022/12/05 06:01:08;;;;;;;51.80;34.50;;;;;;;-1.27;100.00;96984.14;105850;1299;22485;-91
2022/12/05 06:03:38;;;;;;;40.20;27.50;;;;;;;-1.37;100.00;96985.64;105853;1285;22495;-91
2022/12/05 06:06:11;;;;;;;29.70;19.90;;;;;;;-1.26;100.00;96985.98;105743;1301;51203;-92
2022/12/05 06:08:41;;;;;;;25.10;17.40;;;;;;;-0.85;100.00;96987.94;105903;1282;25162;-91
2022/12/05 06:11:12;;;;;;;34.40;22.60;;;;;;;-0.48;100.00;96989.91;105871;1301;22513;-90
2022/12/05 06:13:41;;;;;;;35.80;22.50;;;;;;;-0.42;100.00;96986.92;106459;1301;22479;-90
2022/12/05 06:16:11;;;;;;;36.40;22.90;;;;;;;-0.46;100.00;96983.98;105808;1301;30745;-90
2022/12/05 06:18:40;;;;;;;32.20;22.30;;;;;;;-0.39;100.00;96982.32;105823;1301;22836;-90
2022/12/05 06:21:09;;;;;;;26.90;18.40;;;;;;;-0.24;100.00;96983.92;105761;1301;22498;-90
2022/12/05 06:23:39;;;;;;;30.80;21.70;;;;;;;-0.13;100.00;96987.50;105795;1286;22450;-90
2022/12/05 06:26:11;;;;;;;26.00;17.70;;;;;;;-0.08;100.00;96994.11;105730;1288;40361;-91
2022/12/05 06:28:40;;;;;;;26.30;16.80;;;;;;;-0.01;100.00;96998.39;105782;1285;25541;-90
2022/12/05 06:31:11;;;;;;;23.60;17.70;;;;;;;0.12;100.00;96997.10;105795;1301;22472;-91
2022/12/05 06:33:40;;;;;;;27.00;18.10;;;;;;;0.19;100.00;96999.18;105777;1301;22465;-90
2022/12/05 06:36:11;;;;;;;25.30;18.30;;;;;;;0.22;100.00;96998.77;105763;1287;30847;-90
2022/12/05 06:38:39;;;;;;;28.20;18.90;;;;;;;0.30;100.00;97002.33;105796;1301;22465;-90
2022/12/05 06:41:10;;;;;;;27.00;19.60;;;;;;;0.33;100.00;97007.22;105807;1297;22492;-91
2022/12/05 06:43:40;;;;;;;;;;;;;;;0.34;100.00;97011.71;105828;1300;22652;-90
2022/12/05 06:46:10;;;;;;;26.50;18.40;;;;;;;0.33;100.00;97014.56;105741;1300;24337;-90
2022/12/05 06:48:39;;;;;;;26.40;18.90;;;;;;;0.31;100.00;97016.45;105813;1288;25262;-90
2022/12/05 06:51:10;;;;;;;32.10;22.00;;;;;;;0.29;100.00;97018.42;105835;1299;22482;-90
2022/12/05 06:53:40;;;;;;;38.70;25.30;;;;;;;0.26;100.00;97017.05;105909;1300;22519;-90
2022/12/05 06:56:13;;;;;;;32.30;23.90;;;;;;;0.23;100.00;97015.73;105775;1293;24249;-90
2022/12/05 06:58:42;;;;;;;34.20;25.00;;;;;;;0.23;100.00;97013.92;105811;1301;23306;-89
2022/12/05 07:04:00;;;;;;;41.60;30.90;;;;;;;0.30;100.00;97016.02;105830;1301;25261;-91
2022/12/05 07:06:29;;;;;;;35.40;27.00;;;;;;;0.34;100.00;97016.32;105795;1301;43820;-90
2022/12/05 07:08:58;;;;;;;42.50;31.50;;;;;;;0.51;100.00;97020.17;105860;1301;22472;-91
2022/12/05 07:11:27;;;;;;;45.90;32.60;;;;;;;0.90;100.00;97025.41;105821;1301;22562;-91
2022/12/05 07:13:55;;;;;;;38.00;29.30;;;;;;;1.38;100.00;97020.25;105796;1288;22587;-91
2022/12/05 07:16:24;;;;;;;34.10;26.10;;;;;;;1.83;100.00;97021.17;105740;1292;62944;-92
2022/12/05 07:18:53;;;;;;;27.00;21.90;;;;;;;2.35;100.00;97021.86;105826;1289;22480;-91
2022/12/05 07:21:22;;;;;;;19.90;16.30;;;;;;;2.85;100.00;97023.42;105826;1301;22516;-92
2022/12/05 07:23:52;;;;;;;17.00;14.30;;;;;;;3.37;100.00;97022.88;105857;1300;22483;-91
2022/12/05 07:26:23;;;;;;;15.00;12.10;;;;;;;3.98;100.00;97023.46;105734;1300;37443;-92
2022/12/05 07:28:55;;;;;;;21.70;16.80;;;;;;;4.62;100.00;97021.98;105778;1287;22657;-91
2022/12/05 07:31:25;;;;;;;32.40;26.50;;;;;;;5.12;100.00;97024.17;105798;1301;22456;-92
2022/12/05 07:33:56;;;;;;;30.30;24.70;;;;;;;5.34;100.00;97026.02;105861;1292;22466;-91
2022/12/05 07:36:25;;;;;;;22.30;19.90;;;;;;;5.39;100.00;97027.95;105718;1300;60721;-91
2022/12/05 07:38:57;;;;;;;22.10;18.10;;;;;;;5.23;100.00;97022.40;105864;1301;22484;-91
2022/12/05 07:41:29;;;;;;;19.10;15.00;;;;;;;5.16;100.00;97020.58;105862;1277;22469;-91
2022/12/05 07:43:59;;;;;;;16.10;12.60;;;;;;;5.32;100.00;97018.47;105832;1301;23361;-91
2022/12/05 07:46:29;;;;;;;16.40;12.90;;;;;;;5.38;100.00;97015.90;105701;1301;68708;-91
2022/12/05 07:48:58;;;;;;;13.10;10.00;;;;;;;5.41;100.00;97016.52;105812;1301;22617;-91
2022/12/05 07:51:26;;;;;;;22.50;12.50;;;;;;;5.23;100.00;97019.62;105725;1304;22486;-91
2022/12/05 07:53:55;;;;;;;17.10;12.50;;;;;;;5.14;100.00;97014.43;105787;1301;25352;-91
2022/12/05 07:56:23;;;;;;;17.40;13.40;;;;;;;5.17;100.00;97006.19;105720;1301;27296;-91
2022/12/05 07:58:52;;;;;;;29.20;16.20;;;;;;;5.19;100.00;97007.70;105794;1285;22510;-92
2022/12/05 08:01:23;;;;;;;27.60;17.40;;;;;;;5.10;100.00;97003.21;105742;1285;22447;-91
2022/12/05 08:03:54;;;;;;;24.70;16.00;;;;;;;5.00;100.00;97006.55;105781;1294;22457;-91
2022/12/05 08:06:25;;;;;;;21.40;15.00;;;;;;;4.75;100.00;97003.99;105692;1300;94480;-91
2022/12/05 08:08:55;;;;;;;18.00;14.80;;;;;;;4.63;100.00;97004.84;105774;1289;22563;-91
2022/12/05 08:11:25;;;;;;;17.40;14.80;;;;;;;4.47;100.00;97006.59;105815;1298;22459;-90
2022/12/05 08:13:55;;;;;;;16.10;12.40;;;;;;;4.31;100.00;97005.77;105802;1301;22528;-92
2022/12/05 08:16:25;;;;;;;17.50;14.20;;;;;;;4.24;100.00;96998.79;105770;1301;22916;-92
2022/12/05 08:18:56;;;;;;;16.70;12.80;;;;;;;4.23;100.00;96998.80;105833;1301;22476;-91
2022/12/05 08:21:25;;;;;;;16.90;12.90;;;;;;;4.33;100.00;96998.67;105848;1291;22496;-91
2022/12/05 08:23:54;;;;;;;16.30;12.40;;;;;;;4.45;100.00;97001.35;105818;1285;22465;-91
2022/12/05 08:26:27;;;;;;;16.10;12.10;;;;;;;4.52;100.00;96995.58;105762;1301;41908;-91
2022/12/05 08:28:59;;;;;;;17.20;13.60;;;;;;;4.59;100.00;96994.56;105840;1301;22957;-92
2022/12/05 08:31:31;;;;;;;17.10;12.50;;;;;;;4.67;100.00;96991.67;105808;1286;23083;-91
2022/12/05 08:34:00;;;;;;;14.60;11.80;;;;;;;4.74;100.00;96993.35;105782;1301;24342;-91
2022/12/05 08:36:30;;;;;;;16.40;11.70;;;;;;;4.82;100.00;96991.42;105722;1292;27919;-91
2022/12/05 08:39:01;;;;;;;14.80;11.00;;;;;;;4.96;100.00;96995.96;105807;1301;22514;-91
2022/12/05 08:41:30;;;;;;;16.50;11.60;;;;;;;5.04;100.00;96993.89;105784;1282;23139;-91
2022/12/05 08:44:01;;;;;;;15.30;11.10;;;;;;;5.17;100.00;96995.73;105791;1301;24282;-91
2022/12/05 08:46:31;;;;;;;16.50;11.20;;;;;;;5.34;100.00;96992.43;105726;1298;56343;-90
2022/12/05 08:49:00;;;;;;;14.40;11.30;;;;;;;5.45;100.00;96997.04;105765;1301;22627;-89
2022/12/05 08:51:32;;;;;;;16.20;12.10;;;;;;;5.47;100.00;96998.48;105771;1300;22469;-90
2022/12/05 08:54:02;;;;;;;15.90;12.40;;;;;;;5.56;100.00;96999.96;105805;1282;22452;-89
2022/12/05 08:56:32;;;;;;;15.70;11.90;;;;;;;5.80;100.00;97000.76;105693;1299;36355;-89
2022/12/05 08:59:01;;;;;;;16.30;12.00;;;;;;;6.02;100.00;96996.71;105827;1294;22450;-90
2022/12/05 09:01:30;;;;;;;13.60;10.20;;;;;;;6.15;100.00;96994.93;105736;1288;23015;-91
2022/12/05 09:04:03;;;;;;;13.60;9.80;;;;;;;6.33;100.00;96985.02;105731;1301;22574;-89
2022/12/05 09:06:33;;;;;;;12.50;9.70;;;;;;;6.48;100.00;96977.23;105559;1301;130888;-89
2022/12/05 09:09:05;;;;;;;12.40;8.80;;;;;;;6.67;100.00;96979.97;105800;1301;22503;-88
2022/12/05 09:11:39;;;;;;;14.70;10.60;;;;;;;6.77;100.00;96985.78;105792;1301;22483;-89
2022/12/05 09:14:09;;;;;;;14.80;11.70;;;;;;;6.74;100.00;96982.23;105741;1301;22565;-89
2022/12/05 09:16:40;;;;;;;13.20;10.20;;;;;;;6.66;100.00;96980.01;105684;1296;87264;-88
2022/12/05 09:19:14;;;;;;;15.10;11.40;;;;;;;6.63;100.00;96977.42;105792;1301;22486;-90
2022/12/05 09:21:47;;;;;;;11.70;9.20;;;;;;;6.49;100.00;96976.52;105759;1298;23230;-89
2022/12/05 09:24:20;;;;;;;12.90;9.40;;;;;;;6.44;100.00;96974.44;105766;1292;24247;-88
2022/12/05 09:26:51;;;;;;;;;;;;;;;6.35;100.00;96975.60;105667;1282;93244;-88
2022/12/05 09:29:21;;;;;;;15.20;10.80;;;;;;;6.31;99.23;96975.41;105796;1301;22474;-89
2022/12/05 09:31:56;;;;;;;16.00;11.50;;;;;;;6.35;99.66;96970.21;105805;1301;22467;-88
2022/12/05 09:34:28;;;;;;;13.40;10.30;;;;;;;6.41;98.95;96967.77;105771;1271;22477;-87
2022/12/05 09:37:00;;;;;;;14.50;10.80;;;;;;;6.35;97.06;96967.77;105603;1301;102801;-86
2022/12/05 09:39:30;;;;;;;13.30;10.60;;;;;;;6.34;98.06;96967.40;105814;1301;22496;-88
2022/12/05 09:42:27;;;;;;;15.40;10.90;;;;;;;6.49;98.97;96971.35;105785;1301;23120;-88
2022/12/05 09:45:22;;;;;;;14.30;10.30;;;;;;;6.64;99.19;96965.34;105706;1279;23023;-87
2022/12/05 09:47:57;;;;;;;14.60;10.20;;;;;;;6.48;98.13;96961.64;104271;1295;2034319;-87
2022/12/05 09:50:31;;;;;;;15.80;11.20;;;;;;;6.39;97.30;96969.63;105746;1295;22467;-87
2022/12/05 09:53:07;;;;;;;13.90;10.20;;;;;;;6.37;96.86;96966.08;105716;1286;22482;-87
2022/12/05 09:55:45;;;;;;;14.50;10.90;;;;;;;6.44;95.87;96967.07;105628;1301;123841;-86
2022/12/05 09:58:32;;;;;;;13.80;9.90;;;;;;;6.51;96.19;96965.43;105705;1301;41484;-87
2022/12/05 10:01:11;;;;;;;13.70;11.30;;;;;;;6.68;97.59;96972.60;105849;1294;22536;-87
2022/12/05 10:03:48;;;;;;;16.90;11.80;;;;;;;6.86;97.34;96965.39;105805;1300;22564;-87
2022/12/05 10:06:24;;;;;;;15.90;12.20;;;;;;;6.97;96.71;96962.69;105680;1301;63825;-87
2022/12/05 10:09:20;;;;;;;15.80;11.00;;;;;;;7.05;96.14;96960.45;105728;1294;22493;-86
2022/12/05 10:12:06;;;;;;;15.10;10.70;;;;;;;7.07;95.57;96957.05;105776;1301;22460;-86
2022/12/05 10:14:48;;;;;;;14.20;10.50;;;;;;;7.05;94.92;96951.55;105738;1301;22474;-87
2022/12/05 10:17:23;;;;;;;13.10;9.60;;;;;;;7.05;94.44;96947.86;104237;1274;2029858;-87
2022/12/05 10:19:59;;;;;;;13.10;9.00;;;;;;;7.05;93.79;96950.77;105756;1285;22457;-87
2022/12/05 10:22:33;;;;;;;13.20;9.70;;;;;;;7.08;93.43;96948.31;105755;1293;22455;-88
2022/12/05 10:25:06;;;;;;;12.50;8.70;;;;;;;7.16;93.67;96947.92;105776;1301;22480;-88
2022/12/05 10:27:40;;;;;;;13.90;9.60;;;;;;;7.23;93.25;96944.24;105624;1301;62448;-87
2022/12/05 10:30:15;;;;;;;14.40;9.90;;;;;;;7.24;92.76;96943.98;105808;1301;23128;-88
2022/12/05 10:32:51;;;;;;;15.10;10.50;;;;;;;7.25;91.89;96944.00;105773;1301;22571;-88
2022/12/05 10:35:22;;;;;;;15.40;10.70;;;;;;;7.20;91.22;96938.47;105724;1293;48035;-87
2022/12/05 10:37:58;;;;;;;15.10;11.10;;;;;;;7.10;90.99;96938.52;105710;1292;50025;-86
2022/12/05 10:40:33;;;;;;;13.30;9.60;;;;;;;7.02;91.13;96930.67;105813;1285;22869;-87
2022/12/05 10:43:07;;;;;;;15.60;10.60;;;;;;;6.95;91.29;96934.45;105794;1289;22506;-87
2022/12/05 10:45:42;;;;;;;15.70;9.50;;;;;;;6.90;90.92;96933.30;105716;1300;48067;-88
2022/12/05 10:48:13;;;;;;;13.20;9.30;;;;;;;6.88;91.04;96933.30;105753;1301;57053;-88
2022/12/05 10:50:50;;;;;;;11.60;7.70;;;;;;;6.94;91.34;96927.55;105778;1282;22485;-87
2022/12/05 10:53:24;;;;;;;12.80;9.50;;;;;;;6.93;90.97;96921.05;105795;1301;22510;-88
2022/12/05 10:55:55;;;;;;;13.00;9.10;;;;;;;6.96;91.03;96923.77;104439;1300;1817628;-88
2022/12/05 10:58:26;;;;;;;11.80;8.50;;;;;;;7.00;90.97;96923.33;105822;1300;22493;-87
2022/12/05 11:00:57;;;;;;;12.50;8.70;;;;;;;7.07;90.72;96922.41;105829;1301;22539;-88
2022/12/05 11:03:31;;;;;;;11.90;9.10;;;;;;;7.12;91.20;96919.92;105766;1292;23334;-88
2022/12/05 11:06:02;;;;;;;10.90;8.40;;;;;;;7.17;91.09;96919.45;105724;1301;43689;-87
2022/12/05 11:08:34;;;;;;;13.90;9.50;;;;;;;7.24;91.19;96916.94;105783;1279;22481;-88
2022/12/05 11:11:05;;;;;;;12.80;9.50;;;;;;;7.29;90.92;96916.04;105738;1301;22679;-88
2022/12/05 11:13:35;;;;;;;12.80;10.30;;;;;;;7.35;91.05;96919.27;105754;1297;22513;-87
2022/12/05 11:16:22;;;;;;;12.40;8.70;;;;;;;7.37;90.97;96914.59;105637;1296;36103;-87
2022/12/05 11:18:52;;;;;;;11.40;8.70;;;;;;;7.33;90.44;96907.33;105799;1301;22584;-87
2022/12/05 11:21:20;;;;;;;11.00;8.80;;;;;;;7.24;89.50;96905.66;105715;1301;22533;-87
2022/12/05 11:23:53;;;;;;;14.00;9.70;;;;;;;7.18;90.23;96903.80;105785;1300;22457;-87
2022/12/05 11:26:35;;;;;;;12.10;8.20;;;;;;;7.19;90.41;96903.34;105632;1291;62015;-86
2022/12/05 11:29:30;;;;;;;12.90;9.10;;;;;;;7.25;90.80;96907.55;105817;1296;22480;-87
2022/12/05 11:31:59;;;;;;;10.70;8.00;;;;;;;7.35;90.78;96908.13;105807;1291;22448;-87
2022/12/05 11:34:35;;;;;;;10.00;6.80;;;;;;;7.44;90.81;96909.90;105753;1301;24218;-87
2022/12/05 11:37:12;;;;;;;8.80;6.60;;;;;;;7.49;90.34;96909.27;105709;1301;54180;-86
2022/12/05 11:39:41;;;;;;;8.70;6.30;;;;;;;7.49;89.97;96907.00;105746;1301;25552;-87